Main page
METAR-TAF:

METAR-TAF

Airports :

Grinnell Regional Airport

Grinnell, Iowa, United States

latitude: 41-42-35N, longitude: 092-44-09W, elevation: 1007 ft

Current weather observation

The report was made 24 minutes ago, at 21:15 UTC
Wind 14 mph from the West/Northwest
Temperature 73°F
Humidity 57%
Pressure 29.97 in. Hg
Visibility: 10 miles
Scattered clouds at a height of 7000 ft
Scattered clouds at a height of 9000 ft
Overcast at a height of 11000 ft
rain

METAR: KGGI 192115Z AUTO 29012KT 10SM RA SCT070 SCT090 OVC110 23/14 A2997 RMK AO2 T02260136

Time: 16:39 (21:39 UTC)


TAF: missing

Weather observations and forecasts of more than 4000 airports (METAR and TAF reports).

The available stations are represented by yellow and red dots on the map.

Hover mouse over dot to see the name of the station.

Then click to see weather observations and forecasts.

To change the map : click on the green buttons with a black cross to zoom in, on the green button with a dash to zoom out, or on the green arrows for adjacent maps.


METAR-TAF: